createdAt,value
2018-07-20T00:00:19.347Z,17.39
2018-07-20T00:01:30.441Z,17.39
2018-07-20T00:02:38.117Z,17.42
2018-07-20T00:03:46.181Z,17.38
2018-07-20T00:04:54.453Z,17.38
2018-07-20T00:06:02.551Z,17.31
2018-07-20T00:07:10.620Z,17.31
2018-07-20T00:08:18.644Z,17.31
2018-07-20T00:09:26.724Z,17.27
2018-07-20T00:10:34.776Z,17.19
2018-07-20T00:11:43.047Z,17.32
2018-07-20T00:12:51.107Z,17.27
2018-07-20T00:13:59.209Z,17.17
2018-07-20T00:15:07.348Z,17.22
2018-07-20T00:16:15.321Z,17.12
2018-07-20T00:17:23.444Z,17.20
2018-07-20T00:18:31.788Z,17.16
2018-07-20T00:19:39.533Z,17.17
2018-07-20T00:20:47.574Z,17.19
2018-07-20T00:21:55.620Z,17.20
2018-07-20T00:23:03.712Z,17.16
2018-07-20T00:24:11.763Z,17.12
2018-07-20T00:25:19.853Z,17.14
2018-07-20T00:26:27.925Z,17.12
2018-07-20T00:27:36.227Z,17.12
2018-07-20T00:28:44.255Z,17.10
2018-07-20T00:29:52.329Z,16.99
2018-07-20T00:31:00.405Z,17.12
2018-07-20T00:32:08.464Z,17.10
2018-07-20T00:33:16.520Z,17.09
2018-07-20T00:34:24.597Z,17.04
2018-07-20T00:35:32.650Z,17.01
2018-07-20T00:36:40.973Z,16.95
2018-07-20T00:37:48.767Z,17.01
2018-07-20T00:38:57.061Z,16.97
2018-07-20T00:40:05.121Z,16.97
2018-07-20T00:41:13.219Z,16.98
2018-07-20T00:42:21.261Z,16.87
2018-07-20T00:43:29.374Z,16.89
2018-07-20T00:44:37.407Z,16.87
2018-07-20T00:45:45.437Z,16.84
2018-07-20T00:46:53.534Z,16.79
2018-07-20T00:48:01.689Z,16.86
2018-07-20T00:49:09.735Z,16.83
2018-07-20T00:50:17.705Z,16.82
2018-07-20T00:51:25.768Z,16.80
2018-07-20T00:52:33.848Z,16.80
2018-07-20T00:53:43.181Z,16.73
2018-07-20T00:54:49.994Z,16.66
2018-07-20T00:55:58.073Z,16.62
2018-07-20T00:57:06.107Z,16.65
2018-07-20T00:58:14.182Z,16.69
2018-07-20T00:59:22.297Z,16.72
2018-07-20T01:00:36.841Z,16.64
2018-07-20T01:01:38.382Z,16.64
2018-07-20T01:02:46.472Z,16.51
2018-07-20T01:03:54.520Z,16.59
2018-07-20T01:05:02.591Z,16.47
2018-07-20T01:06:10.713Z,16.43
2018-07-20T01:07:18.733Z,16.58
2018-07-20T01:08:26.831Z,16.46
2018-07-20T01:09:34.862Z,16.47
2018-07-20T01:10:42.957Z,16.40
2018-07-20T01:11:51.007Z,16.39
2018-07-20T01:12:59.279Z,16.43
2018-07-20T01:14:07.340Z,16.46
2018-07-20T01:15:15.404Z,16.39
2018-07-20T01:17:06.998Z,16.41
2018-07-20T01:17:32.574Z,16.43
2018-07-20T01:18:39.637Z,16.49
2018-07-20T01:19:47.748Z,16.40
2018-07-20T01:20:55.743Z,16.41
2018-07-20T01:22:03.814Z,16.41
2018-07-20T01:23:11.886Z,16.44
2018-07-20T01:24:20.064Z,16.41
2018-07-20T01:25:29.738Z,16.36
2018-07-20T01:26:37.716Z,16.31
2018-07-20T01:27:45.856Z,16.32
2018-07-20T01:28:53.832Z,16.29
2018-07-20T01:30:02.978Z,16.29
2018-07-20T01:31:09.978Z,16.21
2018-07-20T01:32:18.030Z,16.22
2018-07-20T01:33:26.106Z,16.21
2018-07-20T01:34:34.188Z,16.16
2018-07-20T01:35:42.268Z,16.18
2018-07-20T01:36:50.319Z,16.09
2018-07-20T01:37:58.671Z,16.10
2018-07-20T01:39:06.478Z,16.08
2018-07-20T01:40:15.515Z,16.09
2018-07-20T01:41:22.584Z,16.05
2018-07-20T01:42:30.861Z,15.99
2018-07-20T01:43:38.950Z,15.83
2018-07-20T01:44:46.999Z,15.88
2018-07-20T01:45:55.973Z,15.87
2018-07-20T01:47:03.138Z,15.87
2018-07-20T01:48:11.263Z,15.80
2018-07-20T01:49:19.566Z,15.72
2018-07-20T01:50:27.327Z,15.73
2018-07-20T01:51:35.430Z,15.75
2018-07-20T01:52:43.473Z,15.63
2018-07-20T01:53:51.546Z,15.70
2018-07-20T01:54:59.662Z,15.67
2018-07-20T01:56:07.679Z,15.57
2018-07-20T01:57:15.748Z,15.54
2018-07-20T01:58:23.817Z,15.55
2018-07-20T01:59:31.892Z,15.60
2018-07-20T02:00:39.970Z,15.57
2018-07-20T02:01:48.340Z,15.57
2018-07-20T02:02:56.080Z,15.54
2018-07-20T02:04:04.164Z,15.54
2018-07-20T02:05:12.228Z,15.48
2018-07-20T02:06:20.298Z,15.47
2018-07-20T02:07:28.342Z,15.39
2018-07-20T02:08:36.407Z,15.36
2018-07-20T02:09:44.487Z,15.36
2018-07-20T02:10:52.537Z,15.32
2018-07-20T02:12:00.633Z,15.36
2018-07-20T02:13:08.709Z,15.37
2018-07-20T02:14:16.780Z,15.35
2018-07-20T02:15:24.817Z,15.35
2018-07-20T02:16:33.039Z,15.30
2018-07-20T02:17:40.961Z,15.33
2018-07-20T02:18:49.070Z,15.33
2018-07-20T02:19:57.089Z,15.37
2018-07-20T02:21:05.133Z,15.32
2018-07-20T02:22:13.214Z,15.33
2018-07-20T02:23:21.295Z,15.30
2018-07-20T02:24:29.357Z,15.29
2018-07-20T02:25:37.424Z,15.36
2018-07-20T02:26:45.526Z,15.27
2018-07-20T02:27:53.545Z,15.22
2018-07-20T02:29:01.661Z,15.22
2018-07-20T02:30:09.678Z,15.18
2018-07-20T02:31:17.778Z,15.22
2018-07-20T02:32:25.814Z,15.25
2018-07-20T02:33:33.876Z,15.19
2018-07-20T02:34:41.938Z,15.22
2018-07-20T02:35:50.009Z,15.15
2018-07-20T02:36:58.076Z,15.15
2018-07-20T02:38:06.126Z,15.15
2018-07-20T02:39:14.206Z,15.17
2018-07-20T02:40:22.467Z,15.15
2018-07-20T02:41:30.533Z,15.25
2018-07-20T02:42:38.868Z,15.26
2018-07-20T02:43:46.668Z,15.27
2018-07-20T02:44:54.739Z,15.25
2018-07-20T02:46:02.812Z,15.32
2018-07-20T02:47:10.889Z,15.23
2018-07-20T02:48:18.946Z,15.23
2018-07-20T02:49:27.016Z,15.26
2018-07-20T02:50:35.276Z,15.25
2018-07-20T02:51:43.334Z,15.23
2018-07-20T02:52:51.391Z,15.22
2018-07-20T02:53:59.474Z,15.25
2018-07-20T02:55:07.525Z,15.18
2018-07-20T02:56:15.588Z,15.17
2018-07-20T02:57:23.646Z,15.12
2018-07-20T02:58:31.715Z,15.10
2018-07-20T02:59:39.783Z,15.11
2018-07-20T03:00:47.844Z,15.14
2018-07-20T03:01:55.917Z,15.15
2018-07-20T03:03:03.981Z,15.14
2018-07-20T03:04:12.046Z,15.02
2018-07-20T03:05:20.330Z,15.05
2018-07-20T03:06:28.390Z,15.02
2018-07-20T03:07:36.467Z,15.14
2018-07-20T03:08:44.595Z,15.11
2018-07-20T03:09:52.584Z,14.99
2018-07-20T03:11:01.005Z,15.10
2018-07-20T03:12:08.735Z,15.11
2018-07-20T03:13:16.790Z,15.05
2018-07-20T03:14:24.853Z,14.99
2018-07-20T03:15:32.934Z,15.07
2018-07-20T03:16:40.994Z,15.00
2018-07-20T03:17:49.053Z,14.99
2018-07-20T03:18:57.338Z,15.19
2018-07-20T03:20:05.367Z,15.04
2018-07-20T03:21:13.452Z,15.10
2018-07-20T03:22:21.520Z,15.15
2018-07-20T03:23:31.697Z,15.10
2018-07-20T03:24:37.637Z,15.19
2018-07-20T03:25:45.701Z,15.12
2018-07-20T03:26:53.780Z,15.11
2018-07-20T03:28:01.845Z,15.11
2018-07-20T03:29:09.932Z,15.23
2018-07-20T03:30:18.067Z,15.17
2018-07-20T03:31:26.056Z,15.29
2018-07-20T03:32:34.157Z,15.25
2018-07-20T03:33:42.462Z,15.30
2018-07-20T03:34:50.268Z,15.23
2018-07-20T03:35:58.897Z,15.25
2018-07-20T03:37:06.381Z,15.26
2018-07-20T03:38:14.450Z,15.23
2018-07-20T03:39:22.535Z,15.19
2018-07-20T03:40:30.567Z,15.22
2018-07-20T03:41:38.643Z,15.19
2018-07-20T03:42:46.908Z,15.19
2018-07-20T03:43:54.969Z,15.32
2018-07-20T03:45:03.034Z,15.23
2018-07-20T03:46:11.468Z,15.25
2018-07-20T03:47:19.179Z,15.32
2018-07-20T03:48:27.252Z,15.35
2018-07-20T03:49:35.396Z,15.36
2018-07-20T03:50:43.373Z,15.37
2018-07-20T03:51:51.450Z,15.33
2018-07-20T03:52:59.520Z,15.26
2018-07-20T03:54:07.590Z,15.36
2018-07-20T03:55:15.636Z,15.36
2018-07-20T03:56:23.699Z,15.35
2018-07-20T03:57:32.135Z,15.36
2018-07-20T03:58:39.838Z,15.35
2018-07-20T03:59:47.921Z,15.32
2018-07-20T04:00:55.959Z,15.35
2018-07-20T04:02:04.038Z,15.33
2018-07-20T04:03:12.357Z,15.33
2018-07-20T04:04:20.162Z,15.33
2018-07-20T04:05:28.615Z,15.35
2018-07-20T04:06:36.300Z,15.33
2018-07-20T04:07:44.362Z,15.33
2018-07-20T04:08:52.423Z,15.35
2018-07-20T04:10:00.673Z,15.39
2018-07-20T04:11:08.565Z,15.35
2018-07-20T04:12:16.636Z,15.33
2018-07-20T04:13:24.714Z,15.37
2018-07-20T04:14:32.765Z,15.35
2018-07-20T04:15:42.056Z,15.41
2018-07-20T04:16:48.955Z,15.43
2018-07-20T04:17:56.976Z,15.43
2018-07-20T04:19:05.029Z,15.37
2018-07-20T04:20:13.141Z,15.47
2018-07-20T04:21:21.178Z,15.35
2018-07-20T04:22:29.864Z,15.44
2018-07-20T04:23:37.302Z,15.48
2018-07-20T04:24:45.343Z,15.48
2018-07-20T04:25:54.260Z,15.52
2018-07-20T04:27:01.502Z,15.57
2018-07-20T04:28:09.568Z,15.65
2018-07-20T04:29:17.633Z,15.63
2018-07-20T04:30:25.690Z,15.70
2018-07-20T04:31:33.762Z,15.72
2018-07-20T04:32:43.236Z,15.87
2018-07-20T04:33:49.901Z,15.85
2018-07-20T04:34:57.959Z,15.84
2018-07-20T04:36:06.395Z,15.85
2018-07-20T04:37:14.098Z,15.87
2018-07-20T04:38:22.223Z,15.88
2018-07-20T04:39:30.236Z,15.91
2018-07-20T04:40:38.448Z,15.94
2018-07-20T04:41:46.456Z,15.96
2018-07-20T04:42:54.439Z,15.96
2018-07-20T04:44:02.529Z,16.03
2018-07-20T04:45:10.578Z,16.09
2018-07-20T04:46:18.659Z,16.08
2018-07-20T04:47:27.076Z,16.18
2018-07-20T04:48:35.301Z,16.18
2018-07-20T04:49:42.896Z,16.29
2018-07-20T04:50:51.218Z,16.32
2018-07-20T04:51:58.993Z,16.37
2018-07-20T04:53:07.065Z,16.40
2018-07-20T04:54:15.092Z,16.39
2018-07-20T04:55:23.184Z,16.41
2018-07-20T04:56:31.240Z,16.39
2018-07-20T04:57:39.298Z,16.43
2018-07-20T04:58:47.417Z,16.49
2018-07-20T04:59:55.443Z,16.55
2018-07-20T05:01:03.510Z,16.68
2018-07-20T05:02:11.857Z,16.77
2018-07-20T05:03:20.067Z,16.73
2018-07-20T05:04:27.963Z,16.69
2018-07-20T05:05:36.654Z,16.73
2018-07-20T05:06:44.863Z,16.86
2018-07-20T05:07:52.296Z,17.01
2018-07-20T05:09:00.351Z,17.31
2018-07-20T05:10:08.472Z,17.84
2018-07-20T05:11:18.358Z,18.11
2018-07-20T05:12:25.697Z,18.42
2018-07-20T05:13:33.277Z,18.45
2018-07-20T05:14:41.350Z,18.33
2018-07-20T05:15:49.760Z,18.15
2018-07-20T05:16:58.326Z,18.09
2018-07-20T05:18:05.327Z,18.09
2018-07-20T05:19:13.516Z,18.12
2018-07-20T05:20:24.516Z,18.09
2018-07-20T05:21:29.627Z,18.03
2018-07-20T05:22:37.609Z,18.03
2018-07-20T05:23:45.654Z,18.02
2018-07-20T05:24:53.852Z,17.97
2018-07-20T05:26:01.826Z,17.95
2018-07-20T05:27:09.902Z,18.06
2018-07-20T05:28:17.998Z,17.93
2018-07-20T05:29:26.007Z,17.98
2018-07-20T05:30:34.120Z,18.02
2018-07-20T05:31:42.154Z,17.97
2018-07-20T05:32:51.634Z,18.05
2018-07-20T05:33:58.285Z,18.05
2018-07-20T05:35:06.569Z,18.03
2018-07-20T05:36:14.483Z,18.06
2018-07-20T05:37:22.526Z,18.09
2018-07-20T05:38:30.566Z,18.06
2018-07-20T05:39:39.704Z,18.06
2018-07-20T05:42:00.644Z,18.24
2018-07-20T05:43:14.401Z,18.39
2018-07-20T05:44:22.412Z,18.34
2018-07-20T05:45:30.476Z,18.41
2018-07-20T05:46:39.961Z,18.39
2018-07-20T05:47:46.619Z,18.52
2018-07-20T05:48:54.656Z,18.48
2018-07-20T05:50:07.044Z,18.53
2018-07-20T05:51:17.348Z,18.66
2018-07-20T05:52:25.444Z,18.66
2018-07-20T05:53:32.402Z,18.70
2018-07-20T05:54:40.464Z,18.83
2018-07-20T05:55:48.538Z,18.85
2018-07-20T05:56:56.698Z,18.74
2018-07-20T05:58:04.675Z,18.83
2018-07-20T05:59:12.731Z,18.83
2018-07-20T06:00:20.814Z,18.96
2018-07-20T06:01:28.880Z,19.01
2018-07-20T06:02:37.049Z,19.08
2018-07-20T06:03:45.010Z,19.16
2018-07-20T06:04:53.284Z,19.11
2018-07-20T06:06:01.342Z,19.30
2018-07-20T06:07:09.420Z,19.29
2018-07-20T06:08:17.511Z,19.41
2018-07-20T06:09:25.585Z,19.57
2018-07-20T06:10:33.854Z,19.62
2018-07-20T06:11:41.701Z,19.66
2018-07-20T06:12:51.190Z,19.75
2018-07-20T06:13:57.834Z,19.90
2018-07-20T06:15:06.931Z,19.93
2018-07-20T06:16:14.998Z,20.11
2018-07-20T06:17:23.059Z,20.22
2018-07-20T06:18:31.110Z,20.40
2018-07-20T06:19:39.385Z,20.50
2018-07-20T06:21:00.246Z,20.55
2018-07-20T06:21:55.528Z,20.68
2018-07-20T06:23:03.581Z,20.80
2018-07-20T06:24:11.721Z,20.95
2018-07-20T06:25:21.952Z,20.96
2018-07-20T06:26:28.035Z,20.98
2018-07-20T06:27:36.053Z,21.00
2018-07-20T06:28:44.194Z,21.01
2018-07-20T06:29:52.204Z,21.04
2018-07-20T06:32:17.450Z,20.93
2018-07-20T06:33:25.496Z,20.90
2018-07-20T06:34:33.561Z,20.96
2018-07-20T06:35:41.661Z,20.89
2018-07-20T06:36:49.754Z,20.95
2018-07-20T06:37:58.007Z,20.96
2018-07-20T06:39:06.044Z,21.04
2018-07-20T06:40:14.437Z,21.08
2018-07-20T06:41:22.194Z,21.05
2018-07-20T06:42:30.269Z,21.19
2018-07-20T06:43:38.385Z,21.23
2018-07-20T06:44:46.422Z,21.29
2018-07-20T06:45:54.480Z,21.33
2018-07-20T06:47:02.648Z,21.37
2018-07-20T06:48:10.664Z,21.54
2018-07-20T06:49:18.705Z,21.66
2018-07-20T06:50:26.769Z,21.63
2018-07-20T06:51:34.831Z,21.70
2018-07-20T06:52:42.913Z,21.85
2018-07-20T06:53:50.974Z,21.96
2018-07-20T06:54:59.073Z,22.16
2018-07-20T06:56:07.135Z,22.23
2018-07-20T06:57:15.184Z,22.33
2018-07-20T06:58:23.254Z,22.44
2018-07-20T06:59:31.337Z,22.58
2018-07-20T07:00:39.408Z,22.63
2018-07-20T07:01:47.507Z,22.63
2018-07-20T07:02:55.629Z,22.63
2018-07-20T07:04:03.719Z,22.83
2018-07-20T07:05:11.698Z,22.83
2018-07-20T07:06:19.766Z,22.83
2018-07-20T07:07:27.833Z,22.83
2018-07-20T07:08:35.944Z,22.80
2018-07-20T07:09:43.961Z,22.89
2018-07-20T07:10:52.138Z,22.84
2018-07-20T07:12:00.118Z,22.95
2018-07-20T07:13:08.188Z,22.95
2018-07-20T07:14:16.511Z,22.96
2018-07-20T07:15:24.331Z,22.99
2018-07-20T07:16:32.437Z,23.08
2018-07-20T07:17:40.474Z,23.25
2018-07-20T07:18:48.586Z,23.39
2018-07-20T07:19:56.623Z,23.49
2018-07-20T07:21:04.754Z,23.77
2018-07-20T07:22:12.815Z,24.04
2018-07-20T07:23:25.058Z,24.31
2018-07-20T07:24:33.138Z,24.66
2018-07-20T07:25:41.258Z,25.09
2018-07-20T07:26:49.298Z,25.55
2018-07-20T07:27:57.359Z,26.13
2018-07-20T07:29:06.531Z,26.68
2018-07-20T07:30:13.544Z,27.13
2018-07-20T07:31:21.585Z,27.64
2018-07-20T07:32:29.646Z,28.04
2018-07-20T07:33:38.096Z,28.41
2018-07-20T07:34:45.802Z,28.84
2018-07-20T07:35:54.089Z,29.12
2018-07-20T07:37:01.954Z,29.57
2018-07-20T07:38:10.028Z,29.99
2018-07-20T07:39:18.134Z,30.08
2018-07-20T07:40:26.452Z,30.43
2018-07-20T07:41:34.269Z,30.74
2018-07-20T07:42:42.339Z,30.80
2018-07-20T07:43:50.424Z,30.99
2018-07-20T07:44:58.490Z,31.20
2018-07-20T07:46:06.569Z,31.44
2018-07-20T07:47:23.427Z,31.63
2018-07-20T07:48:26.369Z,31.95
2018-07-20T07:49:34.422Z,31.72
2018-07-20T07:50:42.508Z,31.82
2018-07-20T07:51:52.016Z,31.87
2018-07-20T07:52:59.211Z,31.78
2018-07-20T07:54:06.757Z,31.93
2018-07-20T07:55:14.803Z,32.16
2018-07-20T07:56:22.925Z,32.42
2018-07-20T07:57:31.013Z,32.56
2018-07-20T07:58:39.071Z,32.67
2018-07-20T07:59:47.152Z,32.68
2018-07-20T08:00:55.203Z,32.63
2018-07-20T08:02:03.360Z,32.79
2018-07-20T08:03:12.079Z,32.61
2018-07-20T08:04:20.064Z,32.56
2018-07-20T08:05:28.152Z,32.63
2018-07-20T08:06:36.230Z,32.86
2018-07-20T08:07:45.616Z,32.98
2018-07-20T08:08:52.394Z,33.10
2018-07-20T08:10:00.652Z,33.35
2018-07-20T08:11:08.588Z,33.66
2018-07-20T08:12:16.651Z,33.67
2018-07-20T08:13:24.719Z,33.35
2018-07-20T08:14:32.810Z,33.16
2018-07-20T08:15:40.901Z,33.13
2018-07-20T08:16:48.977Z,33.13
2018-07-20T08:17:57.077Z,33.28
2018-07-20T08:19:05.139Z,33.44
2018-07-20T08:20:13.260Z,33.63
2018-07-20T08:21:21.334Z,33.65
2018-07-20T08:22:29.389Z,33.84
2018-07-20T08:23:38.159Z,33.92
2018-07-20T08:24:45.560Z,33.92
2018-07-20T08:25:53.657Z,33.98
2018-07-20T08:27:01.723Z,33.89
2018-07-20T08:28:09.845Z,33.91
2018-07-20T08:29:17.905Z,33.87
2018-07-20T08:30:25.960Z,33.92
2018-07-20T08:31:34.069Z,33.70
2018-07-20T08:32:42.139Z,33.66
2018-07-20T08:33:50.251Z,33.94
2018-07-20T08:34:58.399Z,33.94
2018-07-20T08:36:06.390Z,33.81
2018-07-20T08:37:14.464Z,33.75
2018-07-20T08:38:22.591Z,33.73
2018-07-20T08:39:30.630Z,33.54
2018-07-20T08:40:38.742Z,33.50
2018-07-20T08:41:46.821Z,33.40
2018-07-20T08:42:54.910Z,33.48
2018-07-20T08:44:02.963Z,33.57
2018-07-20T08:45:11.267Z,33.58
2018-07-20T08:46:19.346Z,33.69
2018-07-20T08:47:27.453Z,33.44
2018-07-20T08:48:35.528Z,33.51
2018-07-20T08:49:43.614Z,33.47
2018-07-20T08:50:51.801Z,33.53
2018-07-20T08:51:59.987Z,33.32
2018-07-20T08:53:08.078Z,33.48
2018-07-20T08:54:16.124Z,33.57
2018-07-20T08:55:24.250Z,33.73
2018-07-20T08:56:32.326Z,33.88
2018-07-20T08:57:40.419Z,34.02
2018-07-20T08:58:48.528Z,33.92
2018-07-20T08:59:56.590Z,33.95
2018-07-20T09:01:04.676Z,34.02
2018-07-20T09:02:12.751Z,33.72
2018-07-20T09:03:20.847Z,33.73
2018-07-20T09:04:28.930Z,33.58
2018-07-20T09:05:36.991Z,33.33
2018-07-20T09:06:45.086Z,33.17
2018-07-20T09:07:53.173Z,33.19
2018-07-20T09:09:01.274Z,33.23
2018-07-20T09:10:09.342Z,33.12
2018-07-20T09:11:17.425Z,33.00
2018-07-20T09:12:25.568Z,32.76
2018-07-20T09:13:33.980Z,32.34
2018-07-20T09:14:41.897Z,32.23
2018-07-20T09:15:49.956Z,31.93
2018-07-20T09:16:58.045Z,31.86
2018-07-20T09:18:06.129Z,31.59
2018-07-20T09:19:14.227Z,31.20
2018-07-20T09:20:22.513Z,31.20
2018-07-20T09:21:30.577Z,30.89
2018-07-20T09:22:38.866Z,30.63
2018-07-20T09:23:46.966Z,30.05
2018-07-20T09:24:59.047Z,29.73
2018-07-20T09:26:03.378Z,29.46
2018-07-20T09:27:11.202Z,29.31
2018-07-20T09:28:19.337Z,29.07
2018-07-20T09:29:27.371Z,29.13
2018-07-20T09:30:37.871Z,29.12
2018-07-20T09:31:45.942Z,29.32
2018-07-20T09:32:54.018Z,29.35
2018-07-20T09:34:02.101Z,29.05
2018-07-20T09:35:10.175Z,28.84
2018-07-20T09:36:18.241Z,28.90
2018-07-20T09:37:26.330Z,28.83
2018-07-20T09:38:34.471Z,28.59
2018-07-20T09:39:42.471Z,28.57
2018-07-20T09:40:50.595Z,28.71
2018-07-20T09:41:58.665Z,28.82
2018-07-20T09:43:06.724Z,28.92
2018-07-20T09:44:14.807Z,29.05
2018-07-20T09:45:22.869Z,29.06
2018-07-20T09:46:30.960Z,28.96
2018-07-20T09:47:39.035Z,28.97
2018-07-20T09:48:47.090Z,29.07
2018-07-20T09:49:55.184Z,29.09
2018-07-20T09:51:03.261Z,28.86
2018-07-20T09:52:11.350Z,28.84
2018-07-20T09:53:19.440Z,28.84
2018-07-20T09:54:27.511Z,28.78
2018-07-20T09:55:35.631Z,28.70
2018-07-20T09:56:43.655Z,28.75
2018-07-20T09:57:51.704Z,28.84
2018-07-20T09:58:59.815Z,28.93
2018-07-20T10:00:07.865Z,29.02
2018-07-20T10:01:15.918Z,28.93
2018-07-20T10:02:24.011Z,28.97
2018-07-20T10:03:32.082Z,28.96
2018-07-20T10:04:40.179Z,29.02
2018-07-20T10:05:48.251Z,29.10
2018-07-20T10:06:56.342Z,29.18
2018-07-20T10:08:04.413Z,29.22
2018-07-20T10:09:12.486Z,29.35
2018-07-20T10:10:20.549Z,29.27
2018-07-20T10:11:28.937Z,29.28
2018-07-20T10:12:36.765Z,29.37
2018-07-20T10:13:44.811Z,29.24
2018-07-20T10:14:53.139Z,29.12
2018-07-20T10:16:00.939Z,29.24
2018-07-20T10:17:09.025Z,29.35
2018-07-20T10:18:17.083Z,29.46
2018-07-20T10:19:25.182Z,29.49
2018-07-20T10:20:33.240Z,29.50
2018-07-20T10:21:41.322Z,29.67
2018-07-20T10:22:49.399Z,29.90
2018-07-20T10:23:57.484Z,30.13
2018-07-20T10:25:05.553Z,30.20
2018-07-20T10:26:13.627Z,30.27
2018-07-20T10:27:21.725Z,30.23
2018-07-20T10:28:29.777Z,30.21
2018-07-20T10:29:38.900Z,30.23
2018-07-20T10:30:45.971Z,30.24
2018-07-20T10:31:54.034Z,30.20
2018-07-20T10:33:02.366Z,30.08
2018-07-20T10:34:10.228Z,30.06
2018-07-20T10:35:18.236Z,30.20
2018-07-20T10:36:26.316Z,30.17
2018-07-20T10:37:36.458Z,30.20
2018-07-20T10:38:42.470Z,30.29
2018-07-20T10:39:50.558Z,30.36
2018-07-20T10:40:58.643Z,30.46
2018-07-20T10:42:06.712Z,30.48
2018-07-20T10:43:14.812Z,30.43
2018-07-20T10:44:22.859Z,30.58
2018-07-20T10:45:30.944Z,30.59
2018-07-20T10:46:39.011Z,30.56
2018-07-20T10:47:47.087Z,30.44
2018-07-20T10:48:55.151Z,30.29
2018-07-20T10:50:04.338Z,30.36
2018-07-20T10:51:12.327Z,30.18
2018-07-20T10:52:20.392Z,30.13
2018-07-20T10:53:28.452Z,30.18
2018-07-20T10:54:36.518Z,30.58
2018-07-20T10:55:44.611Z,30.48
2018-07-20T10:56:52.682Z,30.69
2018-07-20T10:58:00.768Z,30.74
2018-07-20T10:59:08.856Z,30.77
2018-07-20T11:00:16.943Z,30.88
2018-07-20T11:01:25.093Z,30.92
2018-07-20T11:02:33.077Z,31.08
2018-07-20T11:03:41.149Z,31.07
2018-07-20T11:04:49.317Z,30.96
2018-07-20T11:05:57.313Z,30.93
2018-07-20T11:07:05.369Z,31.00
2018-07-20T11:08:13.445Z,30.86
2018-07-20T11:09:21.590Z,30.88
2018-07-20T11:10:29.625Z,30.83
2018-07-20T11:11:37.742Z,30.74
2018-07-20T11:12:45.747Z,30.76
2018-07-20T11:13:53.856Z,30.76
2018-07-20T11:15:01.928Z,30.69
2018-07-20T11:16:09.984Z,30.85
2018-07-20T11:17:18.090Z,30.83
2018-07-20T11:18:26.147Z,30.86
2018-07-20T11:19:34.225Z,30.86
2018-07-20T11:20:42.531Z,30.86
2018-07-20T11:21:50.570Z,30.83
2018-07-20T11:22:58.656Z,30.67
2018-07-20T11:24:06.786Z,30.73
2018-07-20T11:25:14.925Z,30.74
2018-07-20T11:26:22.915Z,30.76
2018-07-20T11:27:30.963Z,30.67
2018-07-20T11:28:39.032Z,30.58
2018-07-20T11:29:47.119Z,30.61
2018-07-20T11:30:55.592Z,30.69
2018-07-20T11:32:03.270Z,30.65
2018-07-20T11:33:11.344Z,30.63
2018-07-20T11:34:19.447Z,30.62
2018-07-20T11:35:27.597Z,30.69
2018-07-20T11:36:35.553Z,30.78
2018-07-20T11:37:43.648Z,30.76
2018-07-20T11:38:51.729Z,30.85
2018-07-20T11:39:59.814Z,30.93
2018-07-20T11:41:07.885Z,30.81
2018-07-20T11:42:15.967Z,30.86
2018-07-20T11:43:25.014Z,30.92
2018-07-20T11:44:32.122Z,30.86
2018-07-20T11:45:41.211Z,30.89
2018-07-20T11:46:48.286Z,30.80
2018-07-20T11:47:56.341Z,30.98
2018-07-20T11:49:04.420Z,31.18
2018-07-20T11:50:12.476Z,31.17
2018-07-20T11:51:20.573Z,31.45
2018-07-20T11:52:28.647Z,31.66
2018-07-20T11:53:36.715Z,32.01
2018-07-20T11:54:44.789Z,32.24
2018-07-20T11:55:53.035Z,32.51
2018-07-20T11:57:00.956Z,32.66
2018-07-20T11:58:09.055Z,32.76
2018-07-20T11:59:17.115Z,32.68
2018-07-20T12:00:25.188Z,32.60
2018-07-20T12:01:33.277Z,32.67
2018-07-20T12:02:41.339Z,32.90
2018-07-20T12:03:49.449Z,32.73
2018-07-20T12:04:57.517Z,32.73
2018-07-20T12:06:05.549Z,32.39
2018-07-20T12:07:13.645Z,32.23
2018-07-20T12:08:21.754Z,31.97
2018-07-20T12:09:29.807Z,31.54
2018-07-20T12:10:38.159Z,31.44
2018-07-20T12:11:45.960Z,31.20
2018-07-20T12:12:54.038Z,31.05
2018-07-20T12:14:02.124Z,30.92
2018-07-20T12:15:10.173Z,30.80
2018-07-20T12:16:18.265Z,30.69
2018-07-20T12:17:26.608Z,30.46
2018-07-20T12:18:34.611Z,30.32
2018-07-20T12:19:42.694Z,30.18
2018-07-20T12:20:50.783Z,30.01
2018-07-20T12:21:59.118Z,29.77
2018-07-20T12:23:06.948Z,29.65
2018-07-20T12:24:14.994Z,29.55
2018-07-20T12:25:23.085Z,29.50
2018-07-20T12:26:31.211Z,29.30
2018-07-20T12:27:39.244Z,29.22
2018-07-20T12:28:47.343Z,29.21
2018-07-20T12:29:55.374Z,29.10
2018-07-20T12:31:03.546Z,28.97
2018-07-20T12:32:11.530Z,28.93
2018-07-20T12:33:19.633Z,28.87
2018-07-20T12:34:27.699Z,28.97
2018-07-20T12:35:35.745Z,28.86
2018-07-20T12:36:43.843Z,28.78
2018-07-20T12:37:51.922Z,28.68
2018-07-20T12:38:59.987Z,28.67
2018-07-20T12:40:08.088Z,28.71
2018-07-20T12:41:16.177Z,28.55
2018-07-20T12:42:24.215Z,28.60
2018-07-20T12:43:32.294Z,28.55
2018-07-20T12:44:40.371Z,28.60
2018-07-20T12:45:48.449Z,28.59
2018-07-20T12:46:56.539Z,28.60
2018-07-20T12:48:04.581Z,28.64
2018-07-20T12:49:12.686Z,28.65
2018-07-20T12:50:20.906Z,28.55
2018-07-20T12:51:28.837Z,28.56
2018-07-20T12:52:36.905Z,28.53
2018-07-20T12:53:44.961Z,28.41
2018-07-20T12:54:53.063Z,28.50
2018-07-20T12:56:01.226Z,28.41
2018-07-20T12:57:09.192Z,28.46
2018-07-20T12:58:17.275Z,28.47
2018-07-20T12:59:25.337Z,28.41
2018-07-20T13:00:33.426Z,28.45
2018-07-20T13:01:41.521Z,28.45
2018-07-20T13:02:49.781Z,28.47
2018-07-20T13:03:57.864Z,28.45
2018-07-20T13:05:05.914Z,28.45
2018-07-20T13:06:14.010Z,28.43
2018-07-20T13:07:22.094Z,28.53
2018-07-20T13:08:30.168Z,28.65
2018-07-20T13:09:38.241Z,28.72
2018-07-20T13:10:46.306Z,28.72
2018-07-20T13:11:54.445Z,28.75
2018-07-20T13:13:02.489Z,28.78
2018-07-20T13:14:10.525Z,28.84
2018-07-20T13:15:18.599Z,28.83
2018-07-20T13:16:26.673Z,28.72
2018-07-20T13:17:34.997Z,28.72
2018-07-20T13:18:42.833Z,28.78
2018-07-20T13:19:50.983Z,28.78
2018-07-20T13:20:59.021Z,28.77
2018-07-20T13:22:07.056Z,28.80
2018-07-20T13:23:15.132Z,28.70
2018-07-20T13:24:23.209Z,28.56
2018-07-20T13:25:31.279Z,28.74
2018-07-20T13:26:39.344Z,28.80
2018-07-20T13:27:47.449Z,28.71
2018-07-20T13:28:55.511Z,28.59
2018-07-20T13:30:03.593Z,28.62
2018-07-20T13:31:11.656Z,28.70
2018-07-20T13:32:19.755Z,28.60
2018-07-20T13:33:27.834Z,28.46
2018-07-20T13:34:35.861Z,28.55
2018-07-20T13:35:43.982Z,28.56
2018-07-20T13:36:52.039Z,28.52
2018-07-20T13:38:00.108Z,28.56
2018-07-20T13:39:08.172Z,28.59
2018-07-20T13:40:16.261Z,28.60
2018-07-20T13:41:24.326Z,28.60
2018-07-20T13:42:32.428Z,28.59
2018-07-20T13:43:40.490Z,28.56
2018-07-20T13:44:48.545Z,28.52
2018-07-20T13:45:56.637Z,28.60
2018-07-20T13:47:04.714Z,28.47
2018-07-20T13:48:12.771Z,28.45
2018-07-20T13:49:20.850Z,28.33
2018-07-20T13:50:28.946Z,28.35
2018-07-20T13:51:37.010Z,28.40
2018-07-20T13:52:45.202Z,28.35
2018-07-20T13:53:53.168Z,28.35
2018-07-20T13:55:01.231Z,28.34
2018-07-20T13:56:09.438Z,28.45
2018-07-20T13:57:17.409Z,28.45
2018-07-20T13:58:25.476Z,28.46
2018-07-20T13:59:33.536Z,28.45
2018-07-20T14:00:41.695Z,28.49
2018-07-20T14:01:49.741Z,28.45
2018-07-20T14:02:57.760Z,28.45
2018-07-20T14:04:05.956Z,28.40
2018-07-20T14:05:13.917Z,28.45
2018-07-20T14:06:22.000Z,28.33
2018-07-20T14:07:30.064Z,28.19
2018-07-20T14:08:38.147Z,28.13
2018-07-20T14:09:46.433Z,28.09
2018-07-20T14:10:54.295Z,27.93
2018-07-20T14:12:02.368Z,27.90
2018-07-20T14:13:10.433Z,27.83
2018-07-20T14:14:18.949Z,27.75
2018-07-20T14:15:26.818Z,27.81
2018-07-20T14:16:35.066Z,27.66
2018-07-20T14:17:43.130Z,27.61
2018-07-20T14:18:51.250Z,27.58
2018-07-20T14:19:59.297Z,27.53
2018-07-20T14:21:07.390Z,27.40
2018-07-20T14:22:15.449Z,27.35
2018-07-20T14:23:23.523Z,27.34
2018-07-20T14:24:31.577Z,27.34
2018-07-20T14:25:39.689Z,27.19
2018-07-20T14:26:47.746Z,27.13
2018-07-20T14:27:55.846Z,27.00
2018-07-20T14:29:03.879Z,26.88
2018-07-20T14:30:12.064Z,26.89
2018-07-20T14:31:20.079Z,26.82
2018-07-20T14:32:28.180Z,26.70
2018-07-20T14:33:36.189Z,26.45
2018-07-20T14:34:44.250Z,26.39
2018-07-20T14:35:52.333Z,26.34
2018-07-20T14:37:00.420Z,26.30
2018-07-20T14:38:08.474Z,26.16
2018-07-20T14:39:16.564Z,26.11